Terminal Aerodrome Forecast
Issued by NWS Twin Cities, MN

Current Version | Previous Version | Text Only | Print | Product List | Glossary On
Versions: 1 2 3 4 5 6 7 8 9 10 11 12 13 14 15 16 17 18 19 20 21 22 23 24 25 26 27 28
989
FTUS43 KMPX 270520
TAFMSP
TAF
KMSP 270520Z 2706/2812 15003KT P6SM FEW050 BKN200
     FM271300 09006KT P6SM VCSH SCT025 OVC050
     FM271600 10007KT P6SM SCT030 OVC070
     FM272000 14005KT P6SM SCT040 BKN150=

USA.gov is the U.S. government's official web portal to all federal, state and local government web resources and services.